createdAt,value
2022-12-04T00:00:54.437Z,6.94
2022-12-04T00:03:27.311Z,6.95
2022-12-04T00:06:07.437Z,6.97
2022-12-04T00:08:41.072Z,6.93
2022-12-04T00:11:15.772Z,6.93
2022-12-04T00:13:50.840Z,6.94
2022-12-04T00:16:25.664Z,6.92
2022-12-04T00:18:59.360Z,6.93
2022-12-04T00:21:32.617Z,6.94
2022-12-04T00:24:06.612Z,6.95
2022-12-04T00:26:39.666Z,6.93
2022-12-04T00:29:13.870Z,6.95
2022-12-04T00:31:46.899Z,6.94
2022-12-04T00:34:20.163Z,6.96
2022-12-04T00:36:52.901Z,6.97
2022-12-04T00:39:26.046Z,6.97
2022-12-04T00:41:58.841Z,6.95
2022-12-04T00:44:33.054Z,6.97
2022-12-04T00:47:05.960Z,6.96
2022-12-04T00:49:38.929Z,6.94
2022-12-04T00:52:11.691Z,6.94
2022-12-04T00:54:44.485Z,6.95
2022-12-04T00:57:17.698Z,6.93
2022-12-04T00:59:52.313Z,6.94
2022-12-04T01:02:25.308Z,6.97
2022-12-04T01:04:58.139Z,6.96
2022-12-04T01:07:30.940Z,6.99
2022-12-04T01:10:04.545Z,6.99
2022-12-04T01:12:37.490Z,6.99
2022-12-04T01:15:12.467Z,7.03
2022-12-04T01:17:45.481Z,7.03
2022-12-04T01:20:18.774Z,7.04
2022-12-04T01:22:51.584Z,7.04
2022-12-04T01:25:24.396Z,7.04
2022-12-04T01:27:57.291Z,7.04
2022-12-04T01:30:31.632Z,7.01
2022-12-04T01:33:04.571Z,6.98
2022-12-04T01:35:37.374Z,6.95
2022-12-04T01:38:10.168Z,6.93
2022-12-04T01:40:45.152Z,6.90
2022-12-04T01:43:18.793Z,6.87
2022-12-04T01:45:55.085Z,6.87
2022-12-04T01:48:31.922Z,6.83
2022-12-04T01:51:09.629Z,6.84
2022-12-04T01:53:45.452Z,6.83
2022-12-04T01:56:19.932Z,6.81
2022-12-04T01:58:55.681Z,6.81
2022-12-04T02:01:35.902Z,6.78
2022-12-04T02:04:08.746Z,6.75
2022-12-04T02:06:41.552Z,6.72
2022-12-04T02:09:14.382Z,6.71
2022-12-04T02:11:54.081Z,6.69
2022-12-04T02:14:32.673Z,6.66
2022-12-04T02:17:16.484Z,6.65
2022-12-04T02:20:23.841Z,6.60
2022-12-04T02:23:26.219Z,6.58
2022-12-04T02:26:06.481Z,6.55
2022-12-04T02:28:49.957Z,6.52
2022-12-04T02:31:31.718Z,6.50
2022-12-04T02:34:09.823Z,6.48
2022-12-04T02:36:49.112Z,6.47
2022-12-04T02:39:27.065Z,6.44
2022-12-04T02:42:06.716Z,6.42
2022-12-04T02:44:45.283Z,6.41
2022-12-04T02:47:23.338Z,6.38
2022-12-04T02:49:59.645Z,6.35
2022-12-04T02:52:35.506Z,6.33
2022-12-04T02:55:14.996Z,6.33
2022-12-04T02:57:52.290Z,6.33
2022-12-04T03:00:27.227Z,6.34
2022-12-04T03:03:03.954Z,6.36
2022-12-04T03:05:42.806Z,6.38
2022-12-04T03:08:21.311Z,6.40
2022-12-04T03:10:58.848Z,6.40
2022-12-04T03:13:36.236Z,6.42
2022-12-04T03:16:14.535Z,6.43
2022-12-04T03:18:52.203Z,6.42
2022-12-04T03:21:29.372Z,6.39
2022-12-04T03:24:10.041Z,6.40
2022-12-04T03:26:47.872Z,6.38
2022-12-04T03:29:23.867Z,6.37
2022-12-04T03:32:05.400Z,6.34
2022-12-04T03:34:45.115Z,6.30
2022-12-04T03:37:21.655Z,6.29
2022-12-04T03:39:59.917Z,6.26
2022-12-04T03:42:38.957Z,6.25
2022-12-04T03:45:18.720Z,6.21
2022-12-04T03:47:58.081Z,6.21
2022-12-04T03:50:36.631Z,6.20
2022-12-04T03:53:17.443Z,6.20
2022-12-04T03:55:55.498Z,6.20
2022-12-04T03:58:33.131Z,6.21
2022-12-04T04:01:11.314Z,6.19
2022-12-04T04:03:49.255Z,6.20
2022-12-04T04:06:25.855Z,6.19
2022-12-04T04:09:03.804Z,6.21
2022-12-04T04:11:44.347Z,6.20
2022-12-04T04:14:39.901Z,6.20
2022-12-04T04:17:38.256Z,6.19
2022-12-04T04:20:35.326Z,6.18
2022-12-04T04:23:29.299Z,6.15
2022-12-04T04:26:04.103Z,6.11
2022-12-04T04:28:39.525Z,6.11
2022-12-04T04:31:23.600Z,6.10
2022-12-04T04:34:06.702Z,6.06
2022-12-04T04:36:51.791Z,6.04
2022-12-04T04:39:32.595Z,6.01
2022-12-04T04:42:16.185Z,6.01
2022-12-04T04:44:54.124Z,5.98
2022-12-04T04:47:33.782Z,5.95
2022-12-04T04:50:09.807Z,5.98
2022-12-04T04:52:48.234Z,5.96
2022-12-04T04:55:22.085Z,5.96
2022-12-04T04:57:55.313Z,5.96
2022-12-04T05:00:28.539Z,5.99
2022-12-04T05:03:01.380Z,6.00
2022-12-04T05:05:34.199Z,6.03
2022-12-04T05:08:08.999Z,6.05
2022-12-04T05:10:41.778Z,6.03
2022-12-04T05:13:15.229Z,6.03
2022-12-04T05:15:57.975Z,6.04
2022-12-04T05:18:31.649Z,6.02
2022-12-04T05:21:05.640Z,6.03
2022-12-04T05:23:39.760Z,6.01
2022-12-04T05:26:12.604Z,6.02
2022-12-04T05:28:45.536Z,6.03
2022-12-04T05:31:18.531Z,6.04
2022-12-04T05:33:51.341Z,6.04
2022-12-04T05:36:24.086Z,6.06
2022-12-04T05:38:58.270Z,6.07
2022-12-04T05:41:31.075Z,6.07
2022-12-04T05:44:04.152Z,6.09
2022-12-04T05:46:37.010Z,6.11
2022-12-04T05:49:09.843Z,6.11
2022-12-04T05:51:42.599Z,6.11
2022-12-04T05:54:16.938Z,6.11
2022-12-04T05:56:49.773Z,6.10
2022-12-04T05:59:22.597Z,6.09
2022-12-04T06:01:55.658Z,6.09
2022-12-04T06:04:28.660Z,6.08
2022-12-04T06:07:01.856Z,6.11
2022-12-04T06:09:36.185Z,6.10
2022-12-04T06:12:08.956Z,6.10
2022-12-04T06:14:41.787Z,6.12
2022-12-04T06:17:14.558Z,6.15
2022-12-04T06:19:47.423Z,6.17
2022-12-04T06:22:20.749Z,6.17
2022-12-04T06:24:54.932Z,6.18
2022-12-04T06:27:28.683Z,6.18
2022-12-04T06:30:01.997Z,6.19
2022-12-04T06:32:34.791Z,6.19
2022-12-04T06:35:08.075Z,6.20
2022-12-04T06:37:40.822Z,6.22
2022-12-04T06:40:16.465Z,6.26
2022-12-04T06:42:49.399Z,6.29
2022-12-04T06:45:22.287Z,6.33
2022-12-04T06:47:55.093Z,6.36
2022-12-04T06:50:27.872Z,6.38
2022-12-04T06:53:05.004Z,6.40
2022-12-04T06:55:48.817Z,6.43
2022-12-04T06:58:21.602Z,6.44
2022-12-04T07:00:54.825Z,6.47
2022-12-04T07:03:27.981Z,6.50
2022-12-04T07:06:00.827Z,6.50
2022-12-04T07:08:33.903Z,6.53
2022-12-04T07:11:08.264Z,6.55
2022-12-04T07:13:41.799Z,6.55
2022-12-04T07:16:17.095Z,6.57
2022-12-04T07:18:50.566Z,6.59
2022-12-04T07:21:25.407Z,6.64
2022-12-04T07:24:00.774Z,6.66
2022-12-04T07:26:35.152Z,6.68
2022-12-04T07:29:08.013Z,6.67
2022-12-04T07:31:40.964Z,6.67
2022-12-04T07:34:13.807Z,6.70
2022-12-04T07:36:46.605Z,6.68
2022-12-04T07:39:19.421Z,6.68
2022-12-04T07:41:53.604Z,6.68
2022-12-04T07:44:26.477Z,6.69
2022-12-04T07:46:59.369Z,6.68
2022-12-04T07:49:32.194Z,6.68
2022-12-04T07:52:05.824Z,6.70
2022-12-04T07:54:38.621Z,6.71
2022-12-04T07:57:12.845Z,6.72
2022-12-04T07:59:45.670Z,6.71
2022-12-04T08:02:18.558Z,6.71
2022-12-04T08:04:51.633Z,6.71
2022-12-04T08:07:24.527Z,6.72
2022-12-04T08:09:57.602Z,6.69
2022-12-04T08:12:32.792Z,6.69
2022-12-04T08:15:06.896Z,6.68
2022-12-04T08:17:39.680Z,6.64
2022-12-04T08:20:13.237Z,6.66
2022-12-04T08:22:46.036Z,6.65
2022-12-04T08:25:18.921Z,6.67
2022-12-04T08:27:53.134Z,6.67
2022-12-04T08:30:25.887Z,6.68
2022-12-04T08:32:59.024Z,6.69
2022-12-04T08:35:31.816Z,6.69
2022-12-04T08:38:04.681Z,6.70
2022-12-04T08:40:37.478Z,6.72
2022-12-04T08:43:11.876Z,6.77
2022-12-04T08:45:44.677Z,6.78
2022-12-04T08:48:17.554Z,6.79
2022-12-04T08:50:50.319Z,6.80
2022-12-04T08:53:23.686Z,6.80
2022-12-04T08:55:56.493Z,6.81
2022-12-04T08:58:31.121Z,6.83
2022-12-04T09:01:08.163Z,6.82
2022-12-04T09:03:41.632Z,6.81
2022-12-04T09:06:16.102Z,6.80
2022-12-04T09:08:49.115Z,6.77
2022-12-04T09:11:23.684Z,6.78
2022-12-04T09:13:57.855Z,6.78
2022-12-04T09:16:31.041Z,6.74
2022-12-04T09:19:04.357Z,6.74
2022-12-04T09:21:37.164Z,6.75
2022-12-04T09:24:10.006Z,6.75
2022-12-04T09:26:43.181Z,6.76
2022-12-04T09:29:17.484Z,6.80
2022-12-04T09:31:50.267Z,6.81
2022-12-04T09:34:23.130Z,6.81
2022-12-04T09:36:55.934Z,6.83
2022-12-04T09:39:28.744Z,6.82
2022-12-04T09:42:19.442Z,6.86
2022-12-04T09:44:59.134Z,6.82
2022-12-04T09:47:36.284Z,6.81
2022-12-04T09:50:16.201Z,6.81
2022-12-04T09:52:56.501Z,6.80
2022-12-04T09:55:34.043Z,6.78
2022-12-04T09:58:11.886Z,6.78
2022-12-04T10:00:51.165Z,6.79
2022-12-04T10:03:28.164Z,6.77
2022-12-04T10:06:09.074Z,6.77
2022-12-04T10:08:44.672Z,6.76
2022-12-04T10:11:30.716Z,6.74
2022-12-04T10:14:29.453Z,6.77
2022-12-04T10:17:32.723Z,6.77
2022-12-04T10:20:18.566Z,6.81
2022-12-04T10:23:00.594Z,6.83
2022-12-04T10:25:36.147Z,6.86
2022-12-04T10:28:19.410Z,6.87
2022-12-04T10:30:55.194Z,6.89
2022-12-04T10:33:35.032Z,6.91
2022-12-04T10:36:14.091Z,6.92
2022-12-04T10:38:50.641Z,6.93
2022-12-04T10:41:28.283Z,6.93
2022-12-04T10:44:01.672Z,6.93
2022-12-04T10:46:36.043Z,6.94
2022-12-04T10:49:21.061Z,6.95
2022-12-04T10:51:56.121Z,6.93
2022-12-04T10:54:34.441Z,6.94
2022-12-04T10:57:09.437Z,6.91
2022-12-04T10:59:50.779Z,6.93
2022-12-04T11:02:26.992Z,6.90
2022-12-04T11:05:05.051Z,6.93
2022-12-04T11:07:46.168Z,6.93
2022-12-04T11:10:22.680Z,6.92
2022-12-04T11:12:56.294Z,6.93
2022-12-04T11:15:30.454Z,6.92
2022-12-04T11:18:10.934Z,6.93
2022-12-04T11:20:52.044Z,6.93
2022-12-04T11:23:26.132Z,6.94
2022-12-04T11:26:05.927Z,7.00
2022-12-04T11:28:42.748Z,7.02
2022-12-04T11:31:19.866Z,7.08
2022-12-04T11:33:56.010Z,7.13
2022-12-04T11:36:32.993Z,7.19
2022-12-04T11:39:08.422Z,7.24
2022-12-04T11:41:41.542Z,7.29
2022-12-04T11:44:26.146Z,7.37
2022-12-04T11:47:02.011Z,7.41
2022-12-04T11:49:36.554Z,7.45
2022-12-04T11:52:30.500Z,7.53
2022-12-04T11:55:10.181Z,7.56
2022-12-04T11:57:58.452Z,7.60
2022-12-04T12:00:33.423Z,7.65
2022-12-04T12:03:34.881Z,7.68
2022-12-04T12:06:27.427Z,7.74
2022-12-04T12:09:15.901Z,7.77
2022-12-04T12:11:56.306Z,7.80
2022-12-04T12:14:35.894Z,7.81
2022-12-04T12:17:15.995Z,7.85
2022-12-04T12:20:14.969Z,7.88
2022-12-04T12:23:07.511Z,7.93
2022-12-04T12:25:52.279Z,7.97
2022-12-04T12:28:40.574Z,8.02
2022-12-04T12:31:35.647Z,8.06
2022-12-04T12:34:12.548Z,8.10
2022-12-04T12:36:50.635Z,8.13
2022-12-04T12:39:27.587Z,8.16
2022-12-04T12:42:02.674Z,8.19
2022-12-04T12:44:44.578Z,8.19
2022-12-04T12:47:19.669Z,8.18
2022-12-04T12:50:00.188Z,8.20
2022-12-04T12:52:39.476Z,8.19
2022-12-04T12:55:18.048Z,8.16
2022-12-04T12:58:00.457Z,8.14
2022-12-04T13:00:53.573Z,8.14
2022-12-04T13:03:34.518Z,8.12
2022-12-04T13:06:13.159Z,8.11
2022-12-04T13:08:56.402Z,8.14
2022-12-04T13:11:30.487Z,8.13
2022-12-04T13:14:06.112Z,8.18
2022-12-04T13:16:43.150Z,8.18
2022-12-04T13:19:27.308Z,8.20
2022-12-04T13:22:16.948Z,8.22
2022-12-04T13:25:15.795Z,8.27
2022-12-04T13:28:00.096Z,8.26
2022-12-04T13:30:45.467Z,8.28
2022-12-04T13:33:48.788Z,8.31
2022-12-04T13:36:39.757Z,8.31
2022-12-04T13:39:32.562Z,8.33
2022-12-04T13:42:36.244Z,8.34
2022-12-04T13:45:25.136Z,8.36
2022-12-04T13:48:00.797Z,8.40
2022-12-04T13:50:35.075Z,8.42
2022-12-04T13:53:23.257Z,8.46
2022-12-04T13:55:58.610Z,8.50
2022-12-04T13:58:35.760Z,8.51
2022-12-04T14:01:26.015Z,8.55
2022-12-04T14:04:00.512Z,8.57
2022-12-04T14:06:39.664Z,8.61
2022-12-04T14:09:23.028Z,8.63
2022-12-04T14:12:07.083Z,8.64
2022-12-04T14:14:44.617Z,8.62
2022-12-04T14:17:22.943Z,8.59
2022-12-04T14:20:04.258Z,8.56
2022-12-04T14:22:43.916Z,8.54
2022-12-04T14:25:34.732Z,8.52
2022-12-04T14:28:16.189Z,8.51
2022-12-04T14:31:04.750Z,8.49
2022-12-04T14:33:43.595Z,8.48
2022-12-04T14:36:26.628Z,8.50
2022-12-04T14:39:11.573Z,8.52
2022-12-04T14:41:45.551Z,8.49
2022-12-04T14:44:27.492Z,8.51
2022-12-04T14:47:03.912Z,8.48
2022-12-04T14:49:47.548Z,8.48
2022-12-04T14:52:28.394Z,8.44
2022-12-04T14:55:11.195Z,8.38
2022-12-04T14:57:50.456Z,8.33
2022-12-04T15:00:24.592Z,8.29
2022-12-04T15:03:00.906Z,8.26
2022-12-04T15:05:34.233Z,8.23
2022-12-04T15:08:08.748Z,8.22
2022-12-04T15:10:59.451Z,8.23
2022-12-04T15:13:34.541Z,8.23
2022-12-04T15:16:11.126Z,8.25
2022-12-04T15:18:54.315Z,8.27
2022-12-04T15:21:35.698Z,8.27
2022-12-04T15:24:12.331Z,8.26
2022-12-04T15:26:47.133Z,8.26
2022-12-04T15:29:24.036Z,8.29
2022-12-04T15:32:01.316Z,8.29
2022-12-04T15:34:38.989Z,8.29
2022-12-04T15:37:19.207Z,8.26
2022-12-04T15:39:54.471Z,8.23
2022-12-04T15:42:30.250Z,8.20
2022-12-04T15:45:23.095Z,8.18
2022-12-04T15:47:57.252Z,8.17
2022-12-04T15:50:31.284Z,8.14
2022-12-04T15:53:09.755Z,8.14
2022-12-04T15:55:51.906Z,8.12
2022-12-04T15:58:27.863Z,8.13
2022-12-04T16:01:03.105Z,8.10
2022-12-04T16:03:41.022Z,8.12
2022-12-04T16:06:19.090Z,8.11
2022-12-04T16:08:53.625Z,8.12
2022-12-04T16:11:34.033Z,8.11
2022-12-04T16:14:18.151Z,8.09
2022-12-04T16:16:53.460Z,8.05
2022-12-04T16:19:31.525Z,8.03
2022-12-04T16:22:10.420Z,7.97
2022-12-04T16:24:44.303Z,7.92
2022-12-04T16:27:22.643Z,7.90
2022-12-04T16:29:55.451Z,7.86
2022-12-04T16:32:31.886Z,7.83
2022-12-04T16:35:04.745Z,7.77
2022-12-04T16:37:37.655Z,7.73
2022-12-04T16:40:12.399Z,7.69
2022-12-04T16:42:46.522Z,7.67
2022-12-04T16:45:26.159Z,7.64
2022-12-04T16:47:59.248Z,7.60
2022-12-04T16:50:32.316Z,7.57
2022-12-04T16:53:05.173Z,7.56
2022-12-04T16:55:40.371Z,7.54
2022-12-04T16:58:15.258Z,7.52
2022-12-04T17:00:53.245Z,7.54
2022-12-04T17:03:31.509Z,7.53
2022-12-04T17:06:04.349Z,7.54
2022-12-04T17:08:37.126Z,7.53
2022-12-04T17:11:11.160Z,7.53
2022-12-04T17:13:45.865Z,7.52
2022-12-04T17:16:20.044Z,7.49
2022-12-04T17:18:55.060Z,7.50
2022-12-04T17:21:27.878Z,7.51
2022-12-04T17:24:00.809Z,7.54
2022-12-04T17:26:34.092Z,7.55
2022-12-04T17:29:08.355Z,7.58
2022-12-04T17:31:41.195Z,7.61
2022-12-04T17:34:14.016Z,7.63
2022-12-04T17:36:46.878Z,7.64
2022-12-04T17:39:19.864Z,7.66
2022-12-04T17:41:52.672Z,7.71
2022-12-04T17:44:26.849Z,7.75
2022-12-04T17:46:59.671Z,7.79
2022-12-04T17:49:32.801Z,7.80
2022-12-04T17:52:05.917Z,7.84
2022-12-04T17:54:38.772Z,7.89
2022-12-04T17:57:11.888Z,7.94
2022-12-04T17:59:46.110Z,7.96
2022-12-04T18:02:19.394Z,8.01
2022-12-04T18:04:54.642Z,8.05
2022-12-04T18:07:27.853Z,8.06
2022-12-04T18:10:00.981Z,8.09
2022-12-04T18:12:33.901Z,8.09
2022-12-04T18:15:09.065Z,8.12
2022-12-04T18:17:41.878Z,8.11
2022-12-04T18:20:14.683Z,8.12
2022-12-04T18:22:47.420Z,8.12
2022-12-04T18:25:20.390Z,8.11
2022-12-04T18:27:53.221Z,8.11
2022-12-04T18:30:27.513Z,8.13
2022-12-04T18:33:00.273Z,8.12
2022-12-04T18:35:33.267Z,8.11
2022-12-04T18:38:06.081Z,8.11
2022-12-04T18:40:38.970Z,8.12
2022-12-04T18:43:15.228Z,8.11
2022-12-04T18:46:01.422Z,8.13
2022-12-04T18:48:39.075Z,8.12
2022-12-04T18:51:17.499Z,8.11
2022-12-04T18:53:51.824Z,8.12
2022-12-04T18:56:24.615Z,8.10
2022-12-04T18:58:58.561Z,8.09
2022-12-04T19:01:33.184Z,8.12
2022-12-04T19:04:09.394Z,8.10
2022-12-04T19:06:43.645Z,8.09
2022-12-04T19:09:20.081Z,8.08
2022-12-04T19:11:52.984Z,8.09
2022-12-04T19:14:25.824Z,8.06
2022-12-04T19:16:59.994Z,8.09
2022-12-04T19:19:33.085Z,8.08
2022-12-04T19:22:05.879Z,8.12
2022-12-04T19:24:38.687Z,8.12
2022-12-04T19:27:12.128Z,8.15
2022-12-04T19:29:45.315Z,8.15
2022-12-04T19:32:22.873Z,8.18
2022-12-04T19:34:55.683Z,8.18
2022-12-04T19:37:28.510Z,8.17
2022-12-04T19:40:01.321Z,8.18
2022-12-04T19:42:34.182Z,8.16
2022-12-04T19:45:07.695Z,8.19
2022-12-04T19:47:42.188Z,8.18
2022-12-04T19:50:14.959Z,8.17
2022-12-04T19:52:51.185Z,8.16
2022-12-04T19:55:30.519Z,8.17
2022-12-04T19:58:03.496Z,8.13
2022-12-04T20:00:36.514Z,8.12
2022-12-04T20:03:12.389Z,8.12
2022-12-04T20:05:45.163Z,8.12
2022-12-04T20:08:18.164Z,8.11
2022-12-04T20:10:51.032Z,8.11
2022-12-04T20:13:23.856Z,8.09
2022-12-04T20:15:56.600Z,8.09
2022-12-04T20:18:31.068Z,8.10
2022-12-04T20:21:04.945Z,8.10
2022-12-04T20:23:38.358Z,8.10
2022-12-04T20:26:14.182Z,8.11
2022-12-04T20:28:47.739Z,8.11
2022-12-04T20:31:23.233Z,8.11
2022-12-04T20:34:01.497Z,8.13
2022-12-04T20:36:38.003Z,8.10
2022-12-04T20:39:11.955Z,8.12
2022-12-04T20:41:45.087Z,8.11
2022-12-04T20:44:21.253Z,8.12
2022-12-04T20:46:54.369Z,8.10
2022-12-04T20:49:28.711Z,8.10
2022-12-04T20:52:01.460Z,8.08
2022-12-04T20:54:40.997Z,8.08
2022-12-04T20:57:13.982Z,8.06
2022-12-04T20:59:46.762Z,8.07
2022-12-04T21:02:19.575Z,8.05
2022-12-04T21:04:54.093Z,8.05
2022-12-04T21:07:26.919Z,8.05
2022-12-04T21:10:00.334Z,8.02
2022-12-04T21:12:51.500Z,8.03
2022-12-04T21:15:41.668Z,8.04
2022-12-04T21:18:14.484Z,8.05
2022-12-04T21:20:48.741Z,8.05
2022-12-04T21:23:21.550Z,8.04
2022-12-04T21:25:56.687Z,8.06
2022-12-04T21:28:31.170Z,8.06
2022-12-04T21:31:05.349Z,8.06
2022-12-04T21:33:38.227Z,8.06
2022-12-04T21:36:12.673Z,8.07
2022-12-04T21:38:45.415Z,8.03
2022-12-04T21:41:32.552Z,8.03
2022-12-04T21:44:05.572Z,8.01
2022-12-04T21:46:38.474Z,7.99
2022-12-04T21:49:12.433Z,7.97
2022-12-04T21:52:02.074Z,7.93
2022-12-04T21:54:34.940Z,7.90
2022-12-04T21:57:07.840Z,7.89
2022-12-04T21:59:40.615Z,7.87
2022-12-04T22:02:15.029Z,7.88
2022-12-04T22:04:48.246Z,7.86
2022-12-04T22:07:22.454Z,7.88
2022-12-04T22:09:55.516Z,7.89
2022-12-04T22:15:21.502Z,7.93
2022-12-04T22:17:54.283Z,7.95
2022-12-04T22:20:27.220Z,7.96
2022-12-04T22:23:01.509Z,7.98
2022-12-04T22:25:34.961Z,7.98
2022-12-04T22:28:07.765Z,8.01
2022-12-04T22:30:40.512Z,8.02
2022-12-04T22:33:13.341Z,8.04
2022-12-04T22:35:46.112Z,8.03
2022-12-04T22:38:20.297Z,8.05
2022-12-04T22:40:53.015Z,8.05
2022-12-04T22:43:25.804Z,8.07
2022-12-04T22:45:58.817Z,8.08
2022-12-04T22:48:33.380Z,8.07
2022-12-04T22:51:09.659Z,8.09
2022-12-04T22:53:45.969Z,8.10
2022-12-04T22:56:21.017Z,8.10
2022-12-04T22:58:55.181Z,8.10
2022-12-04T23:01:30.086Z,8.13
2022-12-04T23:04:04.733Z,8.12
2022-12-04T23:06:37.562Z,8.12
2022-12-04T23:09:14.706Z,8.15
2022-12-04T23:11:51.874Z,8.15
2022-12-04T23:14:27.029Z,8.16
2022-12-04T23:16:59.798Z,8.17
2022-12-04T23:19:32.719Z,8.18
2022-12-04T23:22:05.821Z,8.16
2022-12-04T23:24:41.486Z,8.20
2022-12-04T23:27:14.274Z,8.17
2022-12-04T23:29:54.229Z,8.20
2022-12-04T23:32:27.050Z,8.18
2022-12-04T23:34:59.840Z,8.19
2022-12-04T23:37:32.614Z,8.17
2022-12-04T23:40:08.822Z,8.20
2022-12-04T23:42:41.872Z,8.16
2022-12-04T23:45:14.692Z,8.14
2022-12-04T23:47:47.756Z,8.12
2022-12-04T23:50:20.538Z,8.09
2022-12-04T23:52:53.312Z,8.07
2022-12-04T23:55:31.144Z,8.04
2022-12-04T23:58:07.056Z,8.01
